createdAt,value
2022-11-22T00:01:24.751Z,84.94
2022-11-22T00:06:26.465Z,85.37
2022-11-22T00:11:28.208Z,85.39
2022-11-22T00:16:30.128Z,85.53
2022-11-22T00:21:31.947Z,85.34
2022-11-22T00:26:33.669Z,85.67
2022-11-22T00:31:35.350Z,85.58
2022-11-22T00:36:37.047Z,85.82
2022-11-22T00:41:38.708Z,86.38
2022-11-22T00:46:40.405Z,87.03
2022-11-22T00:51:42.027Z,87.34
2022-11-22T00:56:43.679Z,87.54
2022-11-22T01:01:45.430Z,87.41
2022-11-22T01:06:47.168Z,87.10
2022-11-22T01:11:49.656Z,87.10
2022-11-22T01:16:51.324Z,87.50
2022-11-22T01:21:53.061Z,87.31
2022-11-22T01:26:57.595Z,87.61
2022-11-22T01:31:59.415Z,87.10
2022-11-22T01:37:01.147Z,86.75
2022-11-22T01:42:02.891Z,86.91
2022-11-22T01:47:12.448Z,87.17
2022-11-22T01:52:17.605Z,86.87
2022-11-22T01:57:24.513Z,87.03
2022-11-22T02:02:26.801Z,87.53
2022-11-22T02:07:35.635Z,87.48
2022-11-22T02:12:37.648Z,87.46
2022-11-22T02:17:39.305Z,87.89
2022-11-22T02:22:56.848Z,87.99
2022-11-22T02:27:58.905Z,88.21
2022-11-22T02:33:00.577Z,88.66
2022-11-22T02:38:06.024Z,88.71
2022-11-22T02:43:35.835Z,88.95
2022-11-22T02:48:45.187Z,89.51
2022-11-22T02:53:49.234Z,89.52
2022-11-22T02:58:51.163Z,89.53
2022-11-22T03:03:52.874Z,89.96
2022-11-22T03:08:56.579Z,90.56
2022-11-22T03:13:58.548Z,90.71
2022-11-22T03:19:00.207Z,90.68
2022-11-22T03:24:02.209Z,90.99
2022-11-22T03:29:04.589Z,90.74
2022-11-22T03:34:06.328Z,90.95
2022-11-22T03:39:08.148Z,91.27
2022-11-22T03:44:09.901Z,91.42
2022-11-22T03:49:12.062Z,91.36
2022-11-22T03:54:13.957Z,91.53
2022-11-22T03:59:15.815Z,91.43
2022-11-22T04:04:17.539Z,91.12
2022-11-22T04:09:19.294Z,92.03
2022-11-22T04:14:39.466Z,91.68
2022-11-22T04:20:01.105Z,91.94
2022-11-22T04:25:15.601Z,92.22
2022-11-22T04:30:20.642Z,91.80
2022-11-22T04:35:22.709Z,91.99
2022-11-22T04:40:24.383Z,91.91
2022-11-22T04:45:26.222Z,91.84
2022-11-22T04:50:48.909Z,91.96
2022-11-22T04:55:51.431Z,92.11
2022-11-22T05:00:53.227Z,92.41
2022-11-22T05:05:55.001Z,92.36
2022-11-22T05:10:56.731Z,92.27
2022-11-22T05:16:00.094Z,92.63
2022-11-22T05:21:06.962Z,92.68
2022-11-22T05:26:09.916Z,92.32
2022-11-22T05:31:23.332Z,92.42
2022-11-22T05:36:25.075Z,92.59
2022-11-22T05:41:26.840Z,93.04
2022-11-22T05:46:30.589Z,92.91
2022-11-22T05:51:34.578Z,92.82
2022-11-22T05:56:36.792Z,92.70
2022-11-22T06:01:38.485Z,92.62
2022-11-22T06:06:40.215Z,92.59
2022-11-22T06:11:41.843Z,92.39
2022-11-22T06:16:43.601Z,92.03
2022-11-22T06:21:45.251Z,92.03
2022-11-22T06:26:46.937Z,92.27
2022-11-22T06:31:48.702Z,92.50
2022-11-22T06:36:50.532Z,92.72
2022-11-22T06:41:52.372Z,92.47
2022-11-22T06:46:53.993Z,92.20
2022-11-22T06:51:55.868Z,92.10
2022-11-22T06:56:57.699Z,91.58
2022-11-22T07:02:05.762Z,91.73
2022-11-22T07:07:08.377Z,92.15
2022-11-22T07:12:10.072Z,92.48
2022-11-22T07:17:11.926Z,92.48
2022-11-22T07:22:13.630Z,92.71
2022-11-22T07:27:15.864Z,93.44
2022-11-22T07:32:17.702Z,93.34
2022-11-22T07:37:19.345Z,93.68
2022-11-22T07:42:25.834Z,94.11
2022-11-22T07:47:28.655Z,94.27
2022-11-22T07:52:30.387Z,94.26
2022-11-22T07:57:32.606Z,94.18
2022-11-22T08:02:34.363Z,94.19
2022-11-22T08:07:36.163Z,94.21
2022-11-22T08:12:37.852Z,94.39
2022-11-22T08:17:39.686Z,94.33
2022-11-22T08:22:42.312Z,94.29
2022-11-22T08:27:44.509Z,94.23
2022-11-22T08:32:46.131Z,94.36
2022-11-22T08:37:47.811Z,94.25
2022-11-22T08:42:49.808Z,94.14
2022-11-22T08:47:52.497Z,93.42
2022-11-22T08:52:54.584Z,93.05
2022-11-22T08:58:00.047Z,92.83
2022-11-22T09:03:01.851Z,92.54
2022-11-22T09:13:25.443Z,92.33
2022-11-22T09:18:27.118Z,92.29
2022-11-22T09:23:29.512Z,92.50
2022-11-22T09:28:31.720Z,92.82
2022-11-22T09:33:35.143Z,93.23
2022-11-22T09:38:37.959Z,93.62
2022-11-22T09:43:46.684Z,94.36
2022-11-22T09:49:13.677Z,94.58
2022-11-22T09:54:22.706Z,94.84
2022-11-22T09:59:31.839Z,94.57
2022-11-22T10:05:04.917Z,94.23
2022-11-22T10:10:16.708Z,94.25
2022-11-22T10:15:36.072Z,93.95
2022-11-22T10:20:47.315Z,93.28
2022-11-22T10:25:58.753Z,92.79
2022-11-22T10:31:20.884Z,92.85
2022-11-22T10:36:39.493Z,92.67
2022-11-22T10:42:19.632Z,92.59
2022-11-22T10:48:01.992Z,92.76
2022-11-22T10:53:22.271Z,92.66
2022-11-22T10:58:49.388Z,92.69
2022-11-22T11:03:59.396Z,92.64
2022-11-22T11:10:03.004Z,92.21
2022-11-22T11:14:43.174Z,91.91
2022-11-22T11:19:48.464Z,91.34
2022-11-22T11:24:50.120Z,91.90
2022-11-22T11:30:03.727Z,91.51
2022-11-22T11:35:08.107Z,91.48
2022-11-22T11:40:30.669Z,91.83
2022-11-22T11:45:33.025Z,91.63
2022-11-22T11:50:34.712Z,91.27
2022-11-22T11:55:37.226Z,90.62
2022-11-22T12:00:40.045Z,90.13
2022-11-22T12:05:41.714Z,89.67
2022-11-22T12:10:59.788Z,89.52
2022-11-22T12:16:29.822Z,89.46
2022-11-22T12:21:37.351Z,89.01
2022-11-22T12:26:39.978Z,89.06
2022-11-22T12:31:57.090Z,88.16
2022-11-22T12:37:09.006Z,88.00
2022-11-22T12:42:20.066Z,87.71
2022-11-22T12:47:32.208Z,88.69
2022-11-22T12:53:00.409Z,88.76
2022-11-22T12:58:20.480Z,88.65
2022-11-22T13:03:30.284Z,88.91
2022-11-22T13:08:52.879Z,89.38
2022-11-22T13:14:06.468Z,89.52
2022-11-22T13:19:12.991Z,89.06
2022-11-22T13:24:42.302Z,88.82
2022-11-22T13:29:45.328Z,89.09
2022-11-22T13:35:01.426Z,89.35
2022-11-22T13:40:15.315Z,89.47
2022-11-22T13:45:24.644Z,89.79
2022-11-22T13:50:41.861Z,90.05
2022-11-22T13:55:43.563Z,90.75
2022-11-22T14:00:45.471Z,90.85
2022-11-22T14:05:53.555Z,91.17
2022-11-22T14:10:55.214Z,91.70
2022-11-22T14:16:13.270Z,92.04
2022-11-22T14:21:20.980Z,92.26
2022-11-22T14:26:41.541Z,92.44
2022-11-22T14:31:55.173Z,93.09
2022-11-22T14:37:29.125Z,93.28
2022-11-22T14:42:36.927Z,93.44
2022-11-22T14:47:46.316Z,93.78
2022-11-22T14:52:48.139Z,93.88
2022-11-22T14:57:59.797Z,93.84
2022-11-22T15:03:27.147Z,94.00
2022-11-22T15:09:15.565Z,93.99
2022-11-22T15:14:37.176Z,94.27
2022-11-22T15:57:55.181Z,94.39
2022-11-22T16:03:01.459Z,94.37
2022-11-22T16:08:05.794Z,94.68
2022-11-22T16:13:35.993Z,94.57
2022-11-22T16:18:39.161Z,94.46
2022-11-22T16:23:42.138Z,94.42
2022-11-22T16:28:44.211Z,94.72
2022-11-22T16:33:46.225Z,94.58
2022-11-22T16:38:48.348Z,94.66
2022-11-22T16:43:53.820Z,94.66
2022-11-22T16:48:56.196Z,94.91
2022-11-22T16:54:00.423Z,94.78
2022-11-22T16:59:02.216Z,94.65
2022-11-22T17:04:04.845Z,94.60
2022-11-22T17:09:06.605Z,94.41
2022-11-22T17:14:16.367Z,94.30
2022-11-22T17:19:51.612Z,94.19
2022-11-22T17:24:39.610Z,94.35
2022-11-22T17:29:50.359Z,95.03
2022-11-22T17:34:52.663Z,95.17
2022-11-22T17:39:54.328Z,95.08
2022-11-22T17:44:56.154Z,95.13
2022-11-22T17:49:58.021Z,94.88
2022-11-22T17:55:05.215Z,94.58
2022-11-22T18:00:10.284Z,93.81
2022-11-22T18:05:12.945Z,93.51
2022-11-22T18:10:14.611Z,93.33
2022-11-22T18:15:16.384Z,92.87
2022-11-22T18:20:18.108Z,92.47
2022-11-22T18:25:20.113Z,92.59
2022-11-22T18:30:22.047Z,92.07
2022-11-22T18:35:24.356Z,91.82
2022-11-22T18:40:26.320Z,91.46
2022-11-22T18:45:32.533Z,90.98
2022-11-22T18:50:34.497Z,91.00
2022-11-22T18:55:36.236Z,90.64
2022-11-22T19:00:37.907Z,90.26
2022-11-22T19:05:40.109Z,90.26
2022-11-22T19:10:43.844Z,90.47
2022-11-22T19:15:45.577Z,89.97
2022-11-22T19:20:55.034Z,90.30
2022-11-22T19:25:57.529Z,90.45
2022-11-22T19:31:10.121Z,90.32
2022-11-22T19:36:14.675Z,90.75
2022-11-22T19:41:21.590Z,90.53
2022-11-22T19:46:24.552Z,90.60
2022-11-22T19:51:28.914Z,90.74
2022-11-22T19:56:33.608Z,90.55
2022-11-22T20:01:35.687Z,90.56
2022-11-22T20:06:37.691Z,90.73
2022-11-22T20:11:41.252Z,90.87
2022-11-22T20:16:43.125Z,90.36
2022-11-22T20:21:45.969Z,90.96
2022-11-22T20:26:47.579Z,91.43
2022-11-22T20:31:49.291Z,91.54
2022-11-22T20:36:50.997Z,91.55
2022-11-22T20:42:11.843Z,92.19
2022-11-22T20:47:15.047Z,92.27
2022-11-22T20:52:16.713Z,92.38
2022-11-22T20:57:18.619Z,93.29
2022-11-22T21:02:20.404Z,93.19
2022-11-22T21:07:22.557Z,93.48
2022-11-22T21:12:25.088Z,93.14
2022-11-22T21:17:50.133Z,93.22
2022-11-22T21:22:54.293Z,93.28
2022-11-22T21:27:56.081Z,93.13
2022-11-22T21:32:58.130Z,93.04
2022-11-22T21:37:59.795Z,92.96
2022-11-22T21:43:01.474Z,93.43
2022-11-22T21:48:04.577Z,93.38
2022-11-22T21:53:06.604Z,93.97
2022-11-22T21:58:08.390Z,93.71
2022-11-22T22:03:10.082Z,94.16
2022-11-22T22:08:11.810Z,93.81
2022-11-22T22:13:13.533Z,93.84
2022-11-22T22:18:15.595Z,93.96
2022-11-22T22:23:17.211Z,93.73
2022-11-22T22:28:18.904Z,93.99
2022-11-22T22:33:20.836Z,94.21
2022-11-22T22:38:23.001Z,94.17
2022-11-22T22:43:25.736Z,93.76
2022-11-22T22:48:29.149Z,93.90
2022-11-22T22:53:31.105Z,93.95
2022-11-22T22:58:33.585Z,93.77
2022-11-22T23:03:36.115Z,93.57
2022-11-22T23:08:38.933Z,93.32
2022-11-22T23:13:41.607Z,93.12
2022-11-22T23:18:44.613Z,93.27
2022-11-22T23:23:46.270Z,92.88
2022-11-22T23:28:48.796Z,92.36
2022-11-22T23:33:50.806Z,92.25
2022-11-22T23:38:52.515Z,92.27
2022-11-22T23:43:56.295Z,91.88
2022-11-22T23:49:00.850Z,91.21
2022-11-22T23:54:06.448Z,92.13
2022-11-22T23:59:09.416Z,92.15
